createdAt,value
2019-02-26T00:02:52.924Z,58.60
2019-02-26T00:05:49.840Z,58.80
2019-02-26T00:08:47.222Z,59.10
2019-02-26T00:11:40.499Z,59.20
2019-02-26T00:14:36.134Z,59.30
2019-02-26T00:17:31.179Z,59.40
2019-02-26T00:20:26.027Z,59.50
2019-02-26T00:23:23.391Z,59.50
2019-02-26T00:26:18.487Z,59.60
2019-02-26T00:29:13.350Z,59.90
2019-02-26T00:32:09.947Z,60.10
2019-02-26T00:35:05.595Z,60.40
2019-02-26T00:38:01.381Z,60.70
2019-02-26T00:40:57.759Z,60.80
2019-02-26T00:44:11.383Z,61.00
2019-02-26T00:47:08.524Z,61.10
2019-02-26T00:50:02.493Z,61.40
2019-02-26T00:52:59.413Z,61.50
2019-02-26T00:55:58.456Z,61.70
2019-02-26T00:58:50.400Z,61.70
2019-02-26T01:01:46.369Z,61.80
2019-02-26T01:04:43.811Z,61.90
2019-02-26T01:07:38.238Z,62.00
2019-02-26T01:10:34.588Z,62.20
2019-02-26T01:13:32.303Z,62.30
2019-02-26T01:16:28.096Z,62.50
2019-02-26T01:19:27.432Z,62.50
2019-02-26T01:22:42.838Z,62.60
2019-02-26T01:25:39.045Z,62.70
2019-02-26T01:28:34.560Z,62.70
2019-02-26T01:31:32.108Z,62.70
2019-02-26T01:34:27.100Z,62.70
2019-02-26T01:37:22.515Z,62.60
2019-02-26T01:40:20.617Z,62.30
2019-02-26T01:43:13.165Z,61.70
2019-02-26T01:46:11.258Z,61.00
2019-02-26T01:49:05.098Z,60.00
2019-02-26T01:52:01.319Z,59.50
2019-02-26T01:54:58.392Z,59.10
2019-02-26T01:57:52.759Z,58.50
2019-02-26T02:00:48.389Z,57.90
2019-02-26T02:03:46.347Z,57.70
2019-02-26T02:06:44.719Z,57.50
2019-02-26T02:09:41.559Z,57.40
2019-02-26T02:12:37.336Z,57.50
2019-02-26T02:15:33.343Z,57.60
2019-02-26T02:18:29.964Z,57.90
2019-02-26T02:21:25.975Z,57.90
2019-02-26T02:24:22.856Z,57.80
2019-02-26T02:27:20.275Z,57.90
2019-02-26T02:30:22.456Z,57.70
2019-02-26T02:33:17.251Z,57.70
2019-02-26T02:36:09.714Z,57.60
2019-02-26T02:39:10.336Z,57.50
2019-02-26T02:42:05.371Z,57.30
2019-02-26T02:45:01.522Z,57.30
2019-02-26T02:48:00.353Z,57.30
2019-02-26T02:50:53.313Z,57.50
2019-02-26T02:53:51.106Z,57.50
2019-02-26T02:56:45.392Z,57.50
2019-02-26T02:59:42.302Z,57.40
2019-02-26T03:02:43.216Z,57.30
2019-02-26T03:05:41.294Z,57.20
2019-02-26T03:08:35.531Z,57.10
2019-02-26T03:11:35.900Z,56.40
2019-02-26T03:14:29.993Z,56.30
2019-02-26T03:17:24.341Z,56.50
2019-02-26T03:20:21.760Z,56.60
2019-02-26T03:23:20.035Z,56.60
2019-02-26T03:26:15.259Z,56.60
2019-02-26T03:29:09.861Z,56.50
2019-02-26T03:32:05.152Z,56.40
2019-02-26T03:35:04.305Z,56.20
2019-02-26T03:38:00.666Z,55.90
2019-02-26T03:40:57.473Z,55.50
2019-02-26T03:43:51.740Z,55.30
2019-02-26T03:46:46.800Z,55.00
2019-02-26T03:49:42.625Z,54.60
2019-02-26T03:52:38.254Z,54.50
2019-02-26T03:55:35.942Z,54.40
2019-02-26T03:58:32.934Z,54.20
2019-02-26T04:01:28.801Z,54.20
2019-02-26T04:04:26.140Z,54.10
2019-02-26T04:07:22.821Z,54.80
2019-02-26T04:10:16.674Z,54.30
2019-02-26T04:13:12.042Z,54.30
2019-02-26T04:16:07.575Z,54.20
2019-02-26T04:19:02.870Z,54.20
2019-02-26T04:22:34.859Z,54.00
2019-02-26T04:25:36.462Z,53.80
2019-02-26T04:28:50.880Z,53.60
2019-02-26T04:32:24.361Z,53.50
2019-02-26T04:36:04.951Z,53.30
2019-02-26T04:39:18.441Z,53.00
2019-02-26T04:43:07.233Z,52.80
2019-02-26T04:46:21.838Z,52.60
2019-02-26T04:49:38.460Z,52.60
2019-02-26T04:52:35.777Z,52.50
2019-02-26T04:55:35.028Z,52.60
2019-02-26T04:58:26.985Z,52.70
2019-02-26T05:01:22.716Z,52.50
2019-02-26T05:04:18.412Z,52.60
2019-02-26T05:07:17.289Z,52.20
2019-02-26T05:10:24.286Z,51.80
2019-02-26T05:13:22.003Z,51.50
2019-02-26T05:16:25.993Z,51.70
2019-02-26T05:19:26.167Z,51.50
2019-02-26T05:22:27.670Z,51.30
2019-02-26T05:25:24.638Z,51.40
2019-02-26T05:47:34.351Z,51.60
2019-02-26T05:50:49.406Z,51.40
2019-02-26T05:54:07.763Z,51.50
2019-02-26T06:00:59.289Z,51.30
2019-02-26T06:03:58.226Z,50.90
2019-02-26T06:07:02.691Z,50.30
2019-02-26T06:10:00.255Z,50.20
2019-02-26T06:12:55.993Z,50.00
2019-02-26T06:15:58.592Z,49.70
2019-02-26T06:19:18.102Z,49.40
2019-02-26T06:22:18.201Z,49.00
2019-02-26T06:25:30.545Z,48.70
2019-02-26T06:28:28.646Z,48.40
2019-02-26T06:31:27.664Z,47.60
2019-02-26T06:34:27.781Z,46.80
2019-02-26T06:37:35.383Z,46.60
2019-02-26T06:40:39.230Z,46.30
2019-02-26T06:43:50.245Z,45.90
2019-02-26T06:46:45.473Z,45.00
2019-02-26T06:49:43.243Z,45.00
2019-02-26T06:52:42.161Z,44.70
2019-02-26T06:55:39.901Z,44.50
2019-02-26T06:58:41.139Z,43.70
2019-02-26T07:01:37.929Z,42.70
2019-02-26T07:04:35.286Z,42.60
2019-02-26T07:07:34.398Z,42.40
2019-02-26T07:10:33.707Z,41.60
2019-02-26T07:13:33.873Z,39.50
2019-02-26T07:16:30.066Z,39.50
2019-02-26T07:19:33.232Z,38.90
2019-02-26T07:22:34.926Z,38.70
2019-02-26T07:25:55.516Z,38.70
2019-02-26T07:29:17.525Z,38.60
2019-02-26T07:32:19.678Z,38.40
2019-02-26T07:39:44.917Z,37.40
2019-02-26T07:42:51.490Z,38.00
2019-02-26T07:50:25.784Z,38.00
2019-02-26T07:54:15.087Z,37.80
2019-02-26T08:06:26.354Z,36.90
2019-02-26T08:09:35.601Z,36.30
2019-02-26T08:13:00.999Z,35.90
2019-02-26T08:16:21.333Z,35.40
2019-02-26T08:20:37.546Z,35.30
2019-02-26T08:24:14.820Z,35.40
2019-02-26T08:27:56.460Z,35.50
2019-02-26T08:31:46.829Z,35.20
2019-02-26T08:34:56.766Z,34.80
2019-02-26T08:38:21.790Z,34.70
2019-02-26T08:41:35.443Z,34.70
2019-02-26T08:45:17.781Z,34.60
2019-02-26T08:49:13.250Z,34.50
2019-02-26T08:52:50.836Z,34.60
2019-02-26T08:56:40.990Z,34.80
2019-02-26T09:03:55.837Z,34.30
2019-02-26T09:07:21.841Z,34.60
2019-02-26T09:10:25.046Z,34.40
2019-02-26T09:13:20.848Z,34.50
2019-02-26T09:16:32.758Z,34.80
2019-02-26T09:19:22.685Z,34.90
2019-02-26T09:22:20.725Z,34.80
2019-02-26T09:25:26.198Z,34.50
2019-02-26T09:28:22.302Z,34.50
2019-02-26T09:31:16.696Z,35.00
2019-02-26T09:34:12.901Z,34.10
2019-02-26T09:37:10.647Z,34.40
2019-02-26T09:40:07.153Z,34.10
2019-02-26T09:43:08.856Z,34.10
2019-02-26T09:46:19.862Z,34.40
2019-02-26T09:49:18.169Z,34.90
2019-02-26T09:52:18.390Z,35.30
2019-02-26T09:55:43.360Z,34.80
2019-02-26T09:58:45.601Z,33.70
2019-02-26T10:01:42.854Z,32.40
2019-02-26T10:04:36.917Z,30.00
2019-02-26T10:07:35.501Z,29.80
2019-02-26T10:11:35.728Z,29.40
2019-02-26T10:14:43.607Z,28.70
2019-02-26T10:17:42.673Z,28.20
2019-02-26T10:20:39.287Z,28.10
2019-02-26T10:23:47.152Z,28.00
2019-02-26T10:26:41.478Z,28.10
2019-02-26T10:29:39.832Z,28.30
2019-02-26T10:32:33.996Z,28.40
2019-02-26T10:35:44.355Z,28.50
2019-02-26T10:38:38.463Z,28.70
2019-02-26T10:41:36.762Z,27.90
2019-02-26T10:44:32.312Z,27.30
2019-02-26T10:47:29.745Z,27.90
2019-02-26T10:50:30.950Z,28.10
2019-02-26T10:53:24.652Z,28.10
2019-02-26T10:56:21.424Z,28.00
2019-02-26T10:59:19.517Z,28.10
2019-02-26T11:02:17.295Z,28.10
2019-02-26T11:05:27.559Z,28.10
2019-02-26T11:08:26.833Z,27.90
2019-02-26T11:11:20.267Z,28.30
2019-02-26T11:14:19.325Z,28.20
2019-02-26T11:17:15.855Z,28.50
2019-02-26T11:20:11.767Z,28.60
2019-02-26T11:23:14.244Z,28.40
2019-02-26T11:26:10.691Z,28.30
2019-02-26T11:29:05.173Z,28.40
2019-02-26T11:32:01.735Z,28.50
2019-02-26T11:35:03.432Z,28.70
2019-02-26T11:37:59.332Z,28.90
2019-02-26T11:40:55.850Z,28.90
2019-02-26T11:43:51.841Z,28.80
2019-02-26T11:47:34.104Z,29.00
2019-02-26T11:50:27.936Z,29.10
2019-02-26T11:54:12.968Z,29.20
2019-02-26T11:57:12.917Z,29.30
2019-02-26T12:00:25.469Z,29.30
2019-02-26T12:03:36.366Z,29.30
2019-02-26T12:10:40.425Z,29.40
2019-02-26T12:17:27.803Z,29.40
2019-02-26T12:20:31.752Z,29.60
2019-02-26T12:23:34.298Z,29.60
2019-02-26T12:30:09.989Z,29.80
2019-02-26T12:33:12.360Z,29.90
2019-02-26T12:36:07.478Z,29.80
2019-02-26T12:39:27.943Z,30.00
2019-02-26T12:42:33.585Z,30.30
2019-02-26T12:45:34.220Z,30.50
2019-02-26T12:48:31.072Z,30.70
2019-02-26T12:51:35.466Z,30.80
2019-02-26T12:54:37.103Z,31.00
2019-02-26T12:57:31.627Z,31.00
2019-02-26T13:00:30.963Z,31.00
2019-02-26T13:03:42.552Z,31.20
2019-02-26T13:06:56.644Z,31.40
2019-02-26T13:09:55.946Z,31.50
2019-02-26T13:12:52.800Z,31.40
2019-02-26T13:15:56.319Z,31.20
2019-02-26T13:18:58.452Z,31.20
2019-02-26T13:21:51.872Z,31.40
2019-02-26T13:24:47.256Z,31.70
2019-02-26T13:27:46.701Z,31.70
2019-02-26T13:30:39.372Z,32.10
2019-02-26T13:33:42.134Z,32.20
2019-02-26T13:39:45.557Z,32.30
2019-02-26T13:49:30.944Z,33.80
2019-02-26T13:52:25.983Z,34.30
2019-02-26T13:55:20.784Z,34.70
2019-02-26T13:58:15.727Z,34.60
2019-02-26T14:01:10.941Z,34.50
2019-02-26T14:04:08.366Z,34.80
2019-02-26T14:07:03.702Z,35.10
2019-02-26T14:09:58.968Z,35.30
2019-02-26T14:12:54.233Z,35.60
2019-02-26T14:15:49.278Z,35.90
2019-02-26T14:18:44.314Z,36.10
2019-02-26T14:21:40.050Z,36.30
2019-02-26T14:24:35.237Z,36.50
2019-02-26T14:27:32.802Z,36.50
2019-02-26T14:30:28.243Z,36.50
2019-02-26T14:33:23.213Z,36.50
2019-02-26T14:36:18.839Z,36.80
2019-02-26T14:39:14.703Z,37.10
2019-02-26T14:42:10.114Z,37.30
2019-02-26T14:45:05.522Z,37.30
2019-02-26T14:48:00.681Z,36.80
2019-02-26T14:50:56.583Z,37.50
2019-02-26T14:53:52.041Z,37.70
2019-02-26T14:56:48.451Z,37.90
2019-02-26T14:59:46.438Z,38.00
2019-02-26T15:02:41.750Z,38.00
2019-02-26T15:05:37.391Z,37.90
2019-02-26T15:08:34.639Z,37.30
2019-02-26T15:11:32.752Z,38.00
2019-02-26T15:14:29.240Z,38.50
2019-02-26T15:17:24.835Z,38.70
2019-02-26T15:20:21.515Z,38.60
2019-02-26T15:23:17.671Z,38.60
2019-02-26T15:26:13.615Z,38.80
2019-02-26T15:29:09.523Z,38.90
2019-02-26T15:32:05.362Z,39.00
2019-02-26T15:35:00.744Z,39.10
2019-02-26T15:37:56.631Z,39.10
2019-02-26T15:40:53.407Z,39.10
2019-02-26T15:43:48.479Z,39.00
2019-02-26T15:46:44.309Z,39.00
2019-02-26T15:49:40.217Z,39.00
2019-02-26T15:52:36.049Z,39.20
2019-02-26T15:55:31.328Z,39.30
2019-02-26T15:58:26.754Z,39.40
2019-02-26T16:01:22.114Z,39.40
2019-02-26T16:04:17.856Z,39.40
2019-02-26T16:07:14.766Z,39.40
2019-02-26T16:10:11.520Z,39.30
2019-02-26T16:13:07.436Z,39.40
2019-02-26T16:16:02.660Z,39.40
2019-02-26T16:19:00.326Z,39.40
2019-02-26T16:21:55.657Z,39.30
2019-02-26T16:24:51.489Z,39.30
2019-02-26T16:27:47.212Z,39.40
2019-02-26T16:30:43.218Z,39.50
2019-02-26T16:33:39.463Z,40.20
2019-02-26T16:36:35.272Z,39.80
2019-02-26T16:39:31.430Z,39.90
2019-02-26T16:42:27.621Z,40.00
2019-02-26T16:45:24.676Z,40.30
2019-02-26T16:48:22.194Z,40.50
2019-02-26T16:51:20.945Z,40.50
2019-02-26T16:54:13.819Z,40.60
2019-02-26T16:57:09.574Z,40.70
2019-02-26T17:00:05.328Z,40.70
2019-02-26T17:03:01.320Z,41.00
2019-02-26T17:05:57.700Z,41.20
2019-02-26T17:08:53.919Z,41.50
2019-02-26T17:11:48.984Z,41.60
2019-02-26T17:14:45.057Z,41.70
2019-02-26T17:17:40.880Z,41.90
2019-02-26T17:20:36.334Z,42.10
2019-02-26T17:23:31.763Z,42.20
2019-02-26T17:26:27.316Z,42.40
2019-02-26T17:29:22.730Z,42.70
2019-02-26T17:32:18.180Z,42.90
2019-02-26T17:35:14.186Z,43.20
2019-02-26T17:38:09.918Z,43.50
2019-02-26T17:41:05.518Z,43.70
2019-02-26T17:44:02.205Z,43.90
2019-02-26T17:46:58.078Z,44.20
2019-02-26T17:49:53.609Z,44.60
2019-02-26T17:52:49.331Z,45.00
2019-02-26T17:55:46.325Z,45.30
2019-02-26T17:58:44.004Z,45.60
2019-02-26T18:01:40.123Z,45.80
2019-02-26T18:04:35.627Z,46.10
2019-02-26T18:07:30.943Z,46.20
2019-02-26T18:10:26.596Z,46.40
2019-02-26T18:13:21.998Z,46.50
2019-02-26T18:16:17.899Z,46.70
2019-02-26T18:19:14.246Z,46.90
2019-02-26T18:22:10.189Z,47.10
2019-02-26T18:25:05.776Z,47.30
2019-02-26T18:28:01.571Z,47.50
2019-02-26T18:30:57.249Z,47.70
2019-02-26T18:33:53.637Z,47.20
2019-02-26T18:36:49.593Z,47.90
2019-02-26T18:39:45.124Z,48.00
2019-02-26T18:42:41.425Z,48.20
2019-02-26T18:45:36.925Z,48.40
2019-02-26T18:48:32.598Z,48.60
2019-02-26T18:51:27.475Z,48.80
2019-02-26T18:54:23.114Z,48.80
2019-02-26T18:57:18.572Z,48.80
2019-02-26T19:00:16.440Z,48.70
2019-02-26T19:03:11.455Z,48.70
2019-02-26T19:06:06.951Z,48.80
2019-02-26T19:09:02.586Z,48.80
2019-02-26T19:11:58.367Z,49.00
2019-02-26T19:14:53.914Z,49.10
2019-02-26T19:17:50.874Z,49.10
2019-02-26T19:20:48.857Z,49.30
2019-02-26T19:23:41.715Z,49.30
2019-02-26T19:26:37.232Z,49.20
2019-02-26T19:29:32.534Z,50.00
2019-02-26T19:32:27.433Z,49.40
2019-02-26T19:35:23.867Z,49.60
2019-02-26T19:38:21.789Z,49.80
2019-02-26T19:41:18.512Z,49.90
2019-02-26T19:44:14.388Z,50.00
2019-02-26T19:47:10.900Z,50.10
2019-02-26T19:50:05.836Z,50.20
2019-02-26T19:53:02.439Z,50.20
2019-02-26T19:55:57.566Z,50.10
2019-02-26T19:58:52.807Z,50.20
2019-02-26T20:01:47.627Z,50.20
2019-02-26T20:04:42.384Z,49.90
2019-02-26T20:07:37.803Z,49.80
2019-02-26T20:10:32.743Z,49.50
2019-02-26T20:13:27.878Z,49.50
2019-02-26T20:16:22.641Z,49.30
2019-02-26T20:19:17.444Z,49.20
2019-02-26T20:22:12.705Z,49.10
2019-02-26T20:25:07.725Z,49.00
2019-02-26T20:28:05.553Z,49.00
2019-02-26T20:30:58.927Z,49.10
2019-02-26T20:33:54.011Z,49.10
2019-02-26T20:36:51.162Z,48.80
2019-02-26T20:39:45.812Z,48.70
2019-02-26T20:42:41.312Z,48.70
2019-02-26T20:45:35.960Z,48.60
2019-02-26T20:48:31.139Z,48.40
2019-02-26T20:51:27.133Z,48.40
2019-02-26T20:54:21.536Z,48.40
2019-02-26T20:57:17.767Z,48.50
2019-02-26T21:00:16.462Z,48.60
2019-02-26T21:03:11.592Z,48.70
2019-02-26T21:06:06.446Z,48.80
2019-02-26T21:09:04.800Z,48.90
2019-02-26T21:11:57.279Z,49.00
2019-02-26T21:14:52.432Z,49.00
2019-02-26T21:17:47.749Z,49.30
2019-02-26T21:20:42.867Z,49.40
2019-02-26T21:23:38.322Z,49.40
2019-02-26T21:26:33.460Z,49.30
2019-02-26T21:29:29.368Z,49.30
2019-02-26T21:32:25.636Z,49.30
2019-02-26T21:35:21.204Z,49.00
2019-02-26T21:38:15.923Z,48.70
2019-02-26T21:41:10.733Z,48.10
2019-02-26T21:44:08.711Z,47.20
2019-02-26T21:47:01.822Z,46.80
2019-02-26T21:49:57.579Z,46.50
2019-02-26T21:53:00.242Z,45.90
2019-02-26T21:55:49.282Z,45.50
2019-02-26T21:58:44.295Z,45.50
2019-02-26T22:01:41.314Z,45.50
2019-02-26T22:04:36.710Z,45.30
2019-02-26T22:07:31.691Z,44.90
2019-02-26T22:10:27.510Z,44.90
2019-02-26T22:13:22.460Z,44.60
2019-02-26T22:16:18.318Z,44.20
2019-02-26T22:19:13.130Z,43.70
2019-02-26T22:22:08.436Z,43.30
2019-02-26T22:25:09.653Z,43.00
2019-02-26T22:27:59.462Z,43.10
2019-02-26T22:30:55.976Z,42.70
2019-02-26T22:33:50.111Z,42.60
2019-02-26T22:36:45.680Z,41.90
2019-02-26T22:39:40.426Z,41.70
2019-02-26T22:42:35.611Z,41.60
2019-02-26T22:45:33.248Z,41.40
2019-02-26T22:48:27.951Z,40.90
2019-02-26T22:51:23.253Z,41.10
2019-02-26T22:54:19.672Z,40.80
2019-02-26T22:57:15.178Z,40.70
2019-02-26T23:00:16.121Z,40.70
2019-02-26T23:03:12.936Z,40.80
2019-02-26T23:06:07.370Z,40.90
2019-02-26T23:09:02.451Z,40.80
2019-02-26T23:11:58.070Z,40.70
2019-02-26T23:14:53.516Z,40.70
2019-02-26T23:17:49.252Z,40.70
2019-02-26T23:20:44.377Z,40.30
2019-02-26T23:23:39.510Z,40.30
2019-02-26T23:26:34.586Z,40.30
2019-02-26T23:29:29.724Z,40.20
2019-02-26T23:32:25.853Z,40.40
2019-02-26T23:35:24.674Z,40.40
2019-02-26T23:38:17.361Z,40.10
2019-02-26T23:41:12.171Z,40.10
2019-02-26T23:44:07.058Z,40.00
2019-02-26T23:47:02.622Z,40.20
2019-02-26T23:49:57.442Z,40.30
2019-02-26T23:52:52.517Z,40.30
2019-02-26T23:55:47.599Z,40.40
2019-02-26T23:58:44.759Z,40.60
